createdAt,value
2018-10-21T00:00:18.156Z,13.23
2018-10-21T00:02:46.017Z,13.30
2018-10-21T00:05:13.920Z,12.83
2018-10-21T00:07:46.680Z,12.87
2018-10-21T00:10:14.552Z,13.03
2018-10-21T00:12:42.406Z,12.67
2018-10-21T00:15:10.953Z,12.90
2018-10-21T00:17:38.780Z,13.50
2018-10-21T00:20:06.852Z,12.67
2018-10-21T00:22:34.699Z,13.47
2018-10-21T00:25:02.583Z,13.37
2018-10-21T00:27:30.429Z,13.37
2018-10-21T00:29:58.319Z,13.77
2018-10-21T00:32:32.406Z,13.67
2018-10-21T00:35:00.349Z,12.77
2018-10-21T00:37:28.556Z,12.23
2018-10-21T00:39:56.420Z,12.30
2018-10-21T00:42:24.307Z,13.03
2018-10-21T00:44:52.231Z,11.97
2018-10-21T00:47:20.124Z,13.30
2018-10-21T00:49:49.035Z,13.30
2018-10-21T00:52:16.919Z,13.77
2018-10-21T00:54:44.749Z,13.77
2018-10-21T00:57:12.815Z,13.03
2018-10-21T00:59:40.487Z,13.33
2018-10-21T01:02:08.368Z,11.97
2018-10-21T01:04:37.224Z,12.43
2018-10-21T01:07:05.365Z,13.77
2018-10-21T01:09:33.308Z,13.10
2018-10-21T01:12:01.200Z,12.43
2018-10-21T01:14:29.115Z,12.63
2018-10-21T01:16:56.988Z,12.37
2018-10-21T01:19:24.860Z,14.97
2018-10-21T01:21:52.764Z,13.30
2018-10-21T01:24:20.664Z,13.53
2018-10-21T01:26:48.545Z,13.07
2018-10-21T01:29:16.490Z,12.70
2018-10-21T01:31:45.326Z,13.47
2018-10-21T01:34:13.188Z,12.90
2018-10-21T01:36:42.118Z,14.83
2018-10-21T01:39:11.433Z,15.97
2018-10-21T01:41:39.340Z,17.10
2018-10-21T01:44:07.264Z,19.97
2018-10-21T01:46:35.233Z,17.10
2018-10-21T01:49:03.120Z,15.77
2018-10-21T01:51:31.033Z,14.93
2018-10-21T01:53:58.908Z,14.50
2018-10-21T01:56:26.772Z,23.70
2018-10-21T01:58:54.615Z,16.63
2018-10-21T02:01:22.500Z,16.10
2018-10-21T02:03:50.588Z,15.90
2018-10-21T02:06:18.422Z,14.40
2018-10-21T02:08:46.321Z,19.33
2018-10-21T02:11:14.144Z,22.90
2018-10-21T02:13:42.039Z,16.33
2018-10-21T02:16:09.902Z,16.90
2018-10-21T02:19:40.860Z,18.00
2018-10-21T02:22:09.697Z,17.23
2018-10-21T02:24:37.632Z,17.87
2018-10-21T02:27:05.510Z,16.07
2018-10-21T02:29:33.359Z,18.67
2018-10-21T02:32:01.220Z,13.87
2018-10-21T02:34:29.084Z,16.97
2018-10-21T02:36:57.012Z,18.47
2018-10-21T02:39:24.988Z,19.20
2018-10-21T02:41:54.580Z,20.40
2018-10-21T02:44:23.052Z,18.70
2018-10-21T02:46:52.056Z,16.00
2018-10-21T02:49:20.547Z,16.13
2018-10-21T02:51:53.912Z,15.87
2018-10-21T02:54:25.960Z,16.07
2018-10-21T02:56:53.837Z,16.90
2018-10-21T02:59:22.121Z,15.70
2018-10-21T03:01:50.100Z,14.73
2018-10-21T03:04:18.084Z,15.60
2018-10-21T03:06:45.987Z,15.07
2018-10-21T03:09:13.842Z,14.27
2018-10-21T03:11:41.725Z,15.00
2018-10-21T03:14:09.572Z,15.47
2018-10-21T03:16:38.449Z,14.53
2018-10-21T03:19:06.336Z,14.87
2018-10-21T03:21:34.213Z,15.80
2018-10-21T03:24:02.049Z,14.57
2018-10-21T03:26:29.941Z,13.30
2018-10-21T03:28:57.788Z,15.20
2018-10-21T03:31:25.664Z,16.17
2018-10-21T03:33:53.581Z,15.97
2018-10-21T03:36:21.398Z,16.50
2018-10-21T03:38:49.264Z,17.10
2018-10-21T03:41:17.153Z,16.17
2018-10-21T03:43:45.004Z,17.03
2018-10-21T03:46:14.036Z,15.80
2018-10-21T03:48:41.961Z,16.37
2018-10-21T03:51:09.916Z,16.27
2018-10-21T03:53:37.808Z,16.47
2018-10-21T03:56:05.647Z,16.43
2018-10-21T03:58:33.543Z,16.10
2018-10-21T04:01:01.434Z,15.67
2018-10-21T04:03:29.255Z,15.37
2018-10-21T04:05:57.134Z,15.10
2018-10-21T04:08:24.998Z,14.03
2018-10-21T04:10:52.872Z,15.63
2018-10-21T04:13:20.706Z,16.27
2018-10-21T04:15:48.637Z,14.40
2018-10-21T04:18:16.578Z,16.43
2018-10-21T04:20:45.464Z,16.10
2018-10-21T04:23:13.308Z,14.87
2018-10-21T04:25:41.279Z,14.93
2018-10-21T04:28:09.773Z,14.00
2018-10-21T04:30:39.757Z,14.73
2018-10-21T04:33:10.972Z,15.03
2018-10-21T04:35:38.854Z,15.40
2018-10-21T04:39:10.176Z,14.33
2018-10-21T04:41:38.056Z,14.50
2018-10-21T04:44:05.884Z,12.87
2018-10-21T04:46:34.879Z,14.70
2018-10-21T04:49:02.753Z,13.90
2018-10-21T04:51:31.631Z,13.00
2018-10-21T04:54:00.515Z,14.20
2018-10-21T04:56:29.400Z,13.60
2018-10-21T04:58:57.288Z,13.23
2018-10-21T05:01:26.184Z,13.53
2018-10-21T05:03:54.040Z,13.60
2018-10-21T05:06:21.911Z,14.07
2018-10-21T05:08:49.780Z,12.70
2018-10-21T05:11:17.672Z,12.93
2018-10-21T05:13:46.225Z,13.30
2018-10-21T05:16:14.211Z,12.67
2018-10-21T05:18:42.036Z,13.07
2018-10-21T05:21:09.935Z,13.43
2018-10-21T05:23:37.780Z,13.33
2018-10-21T05:26:05.664Z,13.17
2018-10-21T05:28:33.515Z,13.40
2018-10-21T05:31:01.400Z,13.60
2018-10-21T05:33:29.244Z,14.43
2018-10-21T05:35:57.176Z,14.60
2018-10-21T05:38:25.067Z,14.13
2018-10-21T05:40:52.985Z,15.30
2018-10-21T05:43:20.825Z,14.20
2018-10-21T05:45:48.724Z,14.93
2018-10-21T05:48:16.547Z,14.83
2018-10-21T05:50:44.432Z,13.80
2018-10-21T05:53:12.288Z,14.03
2018-10-21T05:55:40.175Z,14.40
2018-10-21T05:58:08.072Z,15.47
2018-10-21T06:00:35.892Z,15.47
2018-10-21T06:03:03.822Z,16.10
2018-10-21T06:05:36.952Z,16.30
2018-10-21T06:08:05.165Z,16.50
2018-10-21T06:10:32.988Z,16.00
2018-10-21T06:13:00.895Z,14.67
2018-10-21T06:15:28.747Z,13.93
2018-10-21T06:17:56.588Z,14.37
2018-10-21T06:20:28.112Z,14.83
2018-10-21T06:22:55.988Z,14.87
2018-10-21T06:25:24.899Z,13.93
2018-10-21T06:27:52.785Z,14.37
2018-10-21T06:30:20.640Z,13.70
2018-10-21T06:32:48.488Z,13.53
2018-10-21T06:35:16.401Z,14.13
2018-10-21T06:37:44.224Z,14.43
2018-10-21T06:40:12.763Z,15.83
2018-10-21T06:42:42.643Z,17.10
2018-10-21T06:45:11.531Z,15.57
2018-10-21T06:47:39.679Z,16.60
2018-10-21T06:50:09.632Z,16.20
2018-10-21T06:52:37.500Z,15.30
2018-10-21T06:55:05.728Z,17.00
2018-10-21T06:57:33.692Z,16.80
2018-10-21T07:00:01.588Z,16.80
2018-10-21T07:02:29.455Z,17.90
2018-10-21T07:04:57.382Z,17.17
2018-10-21T07:07:25.188Z,17.57
2018-10-21T07:09:53.080Z,18.00
2018-10-21T07:12:20.940Z,18.50
2018-10-21T07:14:48.803Z,18.53
2018-10-21T07:17:16.675Z,18.80
2018-10-21T07:19:44.508Z,17.60
2018-10-21T07:22:12.474Z,19.85
2018-10-21T07:24:40.273Z,19.90
2018-10-21T07:27:08.127Z,19.97
2018-10-21T07:29:35.992Z,19.33
2018-10-21T07:32:03.844Z,19.93
2018-10-21T07:34:31.724Z,20.47
2018-10-21T07:36:59.579Z,19.80
2018-10-21T07:39:28.479Z,20.10
2018-10-21T07:41:56.352Z,20.13
2018-10-21T07:44:24.197Z,20.55
2018-10-21T07:46:52.095Z,20.40
2018-10-21T07:49:19.948Z,21.90
2018-10-21T07:51:47.833Z,21.70
2018-10-21T07:54:15.696Z,20.60
2018-10-21T07:56:43.577Z,21.10
2018-10-21T07:59:11.448Z,21.40
2018-10-21T08:01:39.368Z,20.47
2018-10-21T08:04:07.300Z,21.35
2018-10-21T08:06:40.872Z,22.30
2018-10-21T08:09:09.492Z,23.30
2018-10-21T08:11:37.607Z,21.65
2018-10-21T08:14:05.512Z,21.53
2018-10-21T08:16:33.363Z,20.57
2018-10-21T08:19:01.232Z,22.30
2018-10-21T08:21:29.169Z,20.40
2018-10-21T08:23:57.048Z,22.60
2018-10-21T08:26:24.925Z,23.70
2018-10-21T08:28:53.813Z,21.87
2018-10-21T08:31:21.680Z,21.93
2018-10-21T08:33:49.544Z,21.57
2018-10-21T08:36:17.408Z,21.70
2018-10-21T08:38:45.255Z,21.40
2018-10-21T08:41:13.149Z,22.00
2018-10-21T08:43:41.035Z,21.27
2018-10-21T08:46:10.935Z,20.00
2018-10-21T08:48:38.829Z,21.05
2018-10-21T08:51:06.648Z,20.57
2018-10-21T08:53:34.524Z,20.60
2018-10-21T08:56:02.432Z,20.57
2018-10-21T08:58:30.273Z,18.93
2018-10-21T09:00:59.081Z,20.03
2018-10-21T09:03:26.957Z,18.73
2018-10-21T09:05:54.791Z,18.17
2018-10-21T09:08:22.637Z,17.60
2018-10-21T09:10:50.528Z,17.97
2018-10-21T09:15:26.295Z,17.93
2018-10-21T09:17:54.152Z,12.00
2018-10-21T09:20:22.024Z,14.63
2018-10-21T09:22:49.911Z,13.43
2018-10-21T09:25:17.755Z,14.00
2018-10-21T09:27:45.672Z,12.97
2018-10-21T09:30:14.789Z,12.73
2018-10-21T09:32:42.672Z,12.00
2018-10-21T09:35:12.208Z,12.00
2018-10-21T09:37:40.569Z,11.77
2018-10-21T09:40:10.144Z,10.47
2018-10-21T09:42:37.927Z,10.40
2018-10-21T09:45:06.246Z,10.77
2018-10-21T09:47:34.059Z,10.33
2018-10-21T09:50:02.031Z,9.80
2018-10-21T09:52:29.812Z,9.17
2018-10-21T09:54:57.703Z,8.57
2018-10-21T09:57:25.554Z,7.60
2018-10-21T09:59:53.407Z,8.03
2018-10-21T10:02:26.616Z,6.33
2018-10-21T10:04:54.473Z,5.77
2018-10-21T10:07:22.816Z,4.53
2018-10-21T10:09:50.896Z,5.00
2018-10-21T10:12:18.914Z,5.40
2018-10-21T10:14:46.804Z,7.00
2018-10-21T10:17:14.876Z,6.97
2018-10-21T10:19:42.784Z,6.63
2018-10-21T10:22:10.905Z,5.80
2018-10-21T10:24:39.003Z,5.80
2018-10-21T10:27:07.060Z,6.20
2018-10-21T10:29:34.991Z,6.53
2018-10-21T10:32:02.995Z,5.73
2018-10-21T10:34:30.987Z,5.40
2018-10-21T10:36:59.182Z,5.80
2018-10-21T10:39:27.053Z,5.60
2018-10-21T10:41:55.133Z,5.47
2018-10-21T10:44:22.969Z,5.45
2018-10-21T10:49:18.254Z,6.00
2018-10-21T10:51:47.405Z,4.70
2018-10-21T10:54:15.609Z,4.50
2018-10-21T10:56:43.547Z,4.50
2018-10-21T11:01:38.648Z,4.40
2018-10-21T11:04:06.750Z,4.50
2018-10-21T11:06:34.916Z,4.40
2018-10-21T11:09:03.335Z,4.80
2018-10-21T11:11:31.452Z,5.17
2018-10-21T11:13:59.415Z,4.30
2018-10-21T11:16:27.379Z,3.97
2018-10-21T11:18:55.381Z,3.97
2018-10-21T11:21:23.452Z,5.40
2018-10-21T11:23:51.480Z,4.30
2018-10-21T11:26:19.563Z,3.90
2018-10-21T11:28:47.596Z,4.20
2018-10-21T11:31:15.642Z,3.80
2018-10-21T11:33:43.727Z,3.60
2018-10-21T11:36:11.684Z,3.73
2018-10-21T11:38:39.531Z,3.80
2018-10-21T11:41:07.668Z,3.50
2018-10-21T12:03:14.916Z,2.90
2018-10-21T12:08:11.133Z,2.97
2018-10-21T12:10:39.044Z,3.20
2018-10-21T13:46:21.175Z,2.77
2018-10-21T13:48:49.025Z,2.67
2018-10-21T13:51:16.915Z,2.20
2018-10-21T13:53:44.752Z,2.70
2018-10-21T13:56:12.655Z,2.70
2018-10-21T13:58:40.600Z,3.23
2018-10-21T14:01:08.588Z,2.50
2018-10-21T14:03:36.320Z,2.70
2018-10-21T14:06:04.227Z,2.87
2018-10-21T14:08:32.051Z,2.83
2018-10-21T14:10:59.927Z,2.97
2018-10-21T14:13:27.815Z,3.10
2018-10-21T14:15:55.708Z,3.10
2018-10-21T14:18:23.555Z,2.77
2018-10-21T14:20:51.392Z,2.90
2018-10-21T14:23:19.287Z,3.70
2018-10-21T14:25:47.153Z,2.50
2018-10-21T14:28:16.044Z,7.47
2018-10-21T14:30:43.917Z,3.17
2018-10-21T14:33:11.841Z,2.43
2018-10-21T14:35:39.633Z,2.60
2018-10-21T14:38:07.555Z,4.40
2018-10-21T14:40:35.378Z,3.60
2018-10-21T14:43:03.224Z,2.60
2018-10-21T14:45:31.150Z,3.47
2018-10-21T14:47:58.989Z,2.87
2018-10-21T14:50:26.844Z,5.63
2018-10-21T14:52:54.699Z,4.50
2018-10-21T14:55:22.576Z,5.53
2018-10-21T14:57:50.452Z,4.57
2018-10-21T15:00:18.349Z,3.20
2018-10-21T15:02:46.263Z,4.07
2018-10-21T15:05:14.224Z,3.87
2018-10-21T15:07:43.903Z,5.37
2018-10-21T15:10:11.959Z,3.50
2018-10-21T15:12:39.791Z,3.20
2018-10-21T15:15:08.656Z,3.30
2018-10-21T15:17:36.456Z,6.07
2018-10-21T15:20:04.888Z,3.93
2018-10-21T15:22:32.766Z,3.23
2018-10-21T15:25:00.727Z,3.47
2018-10-21T15:27:28.600Z,3.80
2018-10-21T15:29:56.490Z,3.20
2018-10-21T15:32:24.367Z,3.77
2018-10-21T15:34:52.260Z,5.87
2018-10-21T16:23:58.008Z,8.10
2018-10-21T16:26:25.907Z,8.13
2018-10-21T16:33:48.128Z,17.73
2018-10-21T16:36:15.976Z,14.13
2018-10-21T16:38:43.929Z,12.63
2018-10-21T16:41:11.828Z,14.70
2018-10-21T16:53:29.113Z,11.80
2018-10-21T16:55:56.876Z,11.10
2018-10-21T16:58:24.724Z,12.40
2018-10-21T17:00:52.796Z,11.63
2018-10-21T17:03:20.495Z,11.97
2018-10-21T17:05:48.430Z,12.80
2018-10-21T17:08:16.296Z,13.20
2018-10-21T17:10:44.407Z,13.43
2018-10-21T17:13:12.120Z,14.37
2018-10-21T17:15:40.017Z,15.93
2018-10-21T17:18:07.879Z,15.20
2018-10-21T17:20:35.754Z,20.73
2018-10-21T17:23:03.600Z,36.87
2018-10-21T17:25:31.536Z,18.03
2018-10-21T17:27:59.503Z,25.00
2018-10-21T17:30:27.366Z,19.47
2018-10-21T17:32:55.212Z,19.53
2018-10-21T17:35:23.059Z,19.37
2018-10-21T17:37:50.936Z,19.47
2018-10-21T17:40:19.917Z,16.40
2018-10-21T17:42:47.692Z,15.10
2018-10-21T17:45:15.909Z,17.00
2018-10-21T17:47:43.857Z,15.00
2018-10-21T17:50:13.052Z,13.10
2018-10-21T17:52:41.344Z,15.00
2018-10-21T17:55:09.288Z,18.63
2018-10-21T17:57:37.183Z,16.90
2018-10-21T18:00:06.144Z,17.10
2018-10-21T18:02:34.006Z,17.80
2018-10-21T18:05:01.875Z,20.00
2018-10-21T18:07:29.714Z,18.00
2018-10-21T18:09:57.629Z,18.70
2018-10-21T18:12:25.472Z,17.37
2018-10-21T18:14:53.304Z,16.47
2018-10-21T18:17:21.200Z,15.47
2018-10-21T18:19:49.154Z,14.53
2018-10-21T18:22:17.093Z,15.10
2018-10-21T18:24:44.868Z,14.77
2018-10-21T18:27:12.768Z,14.97
2018-10-21T18:29:40.608Z,14.70
2018-10-21T18:32:08.600Z,15.63
2018-10-21T18:34:36.481Z,14.20
2018-10-21T18:37:04.705Z,13.67
2018-10-21T18:39:32.539Z,12.50
2018-10-21T18:42:00.380Z,13.70
2018-10-21T18:44:28.279Z,15.73
2018-10-21T18:46:56.108Z,15.13
2018-10-21T18:49:24.001Z,16.90
2018-10-21T18:51:51.842Z,13.40
2018-10-21T18:54:19.713Z,12.50
2018-10-21T18:56:47.560Z,11.70
2018-10-21T18:59:15.452Z,12.27
2018-10-21T19:01:43.296Z,12.70
2018-10-21T19:04:11.238Z,12.73
2018-10-21T19:06:39.043Z,12.90
2018-10-21T19:09:08.548Z,14.00
2018-10-21T19:11:36.444Z,14.57
2018-10-21T19:14:04.596Z,13.20
2018-10-21T19:16:32.459Z,13.47
2018-10-21T19:19:00.325Z,14.33
2018-10-21T19:21:28.239Z,13.63
2018-10-21T19:23:56.156Z,14.87
2018-10-21T19:26:24.232Z,14.87
2018-10-21T19:28:52.078Z,13.70
2018-10-21T19:31:19.972Z,12.70
2018-10-21T19:33:48.822Z,11.57
2018-10-21T19:36:16.707Z,13.70
2018-10-21T19:38:44.580Z,13.90
2018-10-21T19:41:12.440Z,13.47
2018-10-21T19:43:40.459Z,13.57
2018-10-21T19:46:08.234Z,14.10
2018-10-21T19:48:36.073Z,14.37
2018-10-21T19:51:04.376Z,14.33
2018-10-21T19:53:32.307Z,13.43
2018-10-21T19:56:00.170Z,13.10
2018-10-21T19:58:28.060Z,13.60
2018-10-21T20:00:55.938Z,13.50
2018-10-21T20:03:23.840Z,15.40
2018-10-21T20:05:51.761Z,14.50
2018-10-21T20:08:19.581Z,15.10
2018-10-21T20:10:47.456Z,15.80
2018-10-21T20:13:15.442Z,16.13
2018-10-21T20:15:43.220Z,15.50
2018-10-21T20:18:11.134Z,13.70
2018-10-21T20:20:38.932Z,14.10
2018-10-21T20:23:06.796Z,15.07
2018-10-21T20:25:34.791Z,13.67
2018-10-21T20:28:02.670Z,13.93
2018-10-21T20:30:30.540Z,13.27
2018-10-21T20:32:58.389Z,13.83
2018-10-21T20:35:26.268Z,13.83
2018-10-21T20:37:54.102Z,14.17
2018-10-21T20:40:21.968Z,12.87
2018-10-21T20:42:49.831Z,13.07
2018-10-21T20:45:17.680Z,13.07
2018-10-21T20:47:45.572Z,13.37
2018-10-21T20:50:13.429Z,12.30
2018-10-21T20:52:41.312Z,13.10
2018-10-21T20:55:09.140Z,12.10
2018-10-21T20:57:37.052Z,11.70
2018-10-21T21:00:04.926Z,12.43
2018-10-21T21:02:32.776Z,10.90
2018-10-21T21:05:00.628Z,10.77
2018-10-21T21:07:28.596Z,10.70
2018-10-21T21:09:56.517Z,9.23
2018-10-21T21:12:24.336Z,10.10
2018-10-21T21:14:52.194Z,10.60
2018-10-21T21:17:20.101Z,10.87
2018-10-21T21:19:47.991Z,10.17
2018-10-21T21:22:15.999Z,10.73
2018-10-21T21:24:43.861Z,11.17
2018-10-21T21:27:11.764Z,12.00
2018-10-21T21:29:39.589Z,12.37
2018-10-21T21:32:07.487Z,12.53
2018-10-21T21:34:35.318Z,11.13
2018-10-21T21:37:03.232Z,12.00
2018-10-21T21:39:31.155Z,11.63
2018-10-21T21:41:59.104Z,10.17
2018-10-21T21:44:26.931Z,11.17
2018-10-21T21:46:54.757Z,10.40
2018-10-21T21:49:22.652Z,11.07
2018-10-21T21:51:50.524Z,10.60
2018-10-21T21:54:18.453Z,10.97
2018-10-21T21:56:46.902Z,9.73
2018-10-21T21:59:14.846Z,11.07
2018-10-21T22:01:42.708Z,11.43
2018-10-21T22:04:10.575Z,10.07
2018-10-21T22:06:38.608Z,11.00
2018-10-21T22:09:11.496Z,11.30
2018-10-21T22:11:39.623Z,10.50
2018-10-21T22:14:07.916Z,11.13
2018-10-21T22:16:35.847Z,11.23
2018-10-21T22:19:03.752Z,10.73
2018-10-21T22:21:31.696Z,11.20
2018-10-21T22:23:59.590Z,11.30
2018-10-21T22:26:27.424Z,11.10
2018-10-21T22:28:55.255Z,11.03
2018-10-21T22:31:24.150Z,10.93
2018-10-21T22:33:52.028Z,11.33
2018-10-21T22:36:19.981Z,11.60
2018-10-21T22:38:47.964Z,11.50
2018-10-21T22:41:16.002Z,11.40
2018-10-21T22:43:43.965Z,11.50
2018-10-21T22:46:11.926Z,11.63
2018-10-21T22:48:39.782Z,11.27
2018-10-21T22:51:07.659Z,11.03
2018-10-21T22:53:35.520Z,11.00
2018-10-21T22:56:03.388Z,11.00
2018-10-21T22:58:33.268Z,10.67
2018-10-21T23:01:01.152Z,11.40
2018-10-21T23:03:28.995Z,10.03
2018-10-21T23:05:56.890Z,11.37
2018-10-21T23:08:24.739Z,11.00
2018-10-21T23:10:52.576Z,11.40
2018-10-21T23:13:20.463Z,10.83
2018-10-21T23:15:48.312Z,10.93
2018-10-21T23:18:16.285Z,10.50
2018-10-21T23:20:44.062Z,10.80
2018-10-21T23:23:11.900Z,10.30
2018-10-21T23:25:39.827Z,10.30
2018-10-21T23:28:07.787Z,11.10
2018-10-21T23:30:35.632Z,10.03
2018-10-21T23:33:03.489Z,9.60
2018-10-21T23:35:31.400Z,10.80
2018-10-21T23:37:59.217Z,9.57
2018-10-21T23:40:27.114Z,10.10
2018-10-21T23:42:54.967Z,10.20
2018-10-21T23:45:23.844Z,9.77
2018-10-21T23:47:51.719Z,10.00
2018-10-21T23:50:19.577Z,9.40
2018-10-21T23:52:47.447Z,10.20
2018-10-21T23:55:15.319Z,10.20
2018-10-21T23:57:44.202Z,9.90
